Time;durP1;ratioP1;P1;durP2;ratioP2;P2;SDS_P1;SDS_P2;PMS_P1;PMS_P2;Temp;Humidity;BMP_temperature;BMP_pressure;BME280_temperature;BME280_humidity;BME280_pressure;Samples;Min_cycle;Max_cycle;Signal;HPM_P1;HPM_P2
2023/12/01 00:01:54;;;;;;;1.52;0.68;;;0.80;99.90;;;;;;6211645;23;20008;-70
2023/12/01 00:04:19;;;;;;;1.55;0.73;;;0.80;99.90;;;;;;6183475;23;20039;-70
2023/12/01 00:06:45;;;;;;;0.80;0.80;;;0.80;99.90;;;;;;6183661;23;20005;-69
2023/12/01 00:09:11;;;;;;;0.45;0.45;;;0.90;99.90;;;;;;6212581;23;20102;-70
2023/12/01 00:11:36;;;;;;;2.10;1.25;;;0.80;99.90;;;;;;6211800;23;20012;-70
2023/12/01 00:14:02;;;;;;;0.63;0.35;;;0.90;99.90;;;;;;6210518;23;20046;-70
2023/12/01 00:16:27;;;;;;;1.08;1.02;;;0.90;99.90;;;;;;6185297;23;20079;-70
2023/12/01 00:18:53;;;;;;;1.50;1.20;;;0.80;99.90;;;;;;6209858;23;20454;-70
2023/12/01 00:21:18;;;;;;;0.75;0.47;;;0.80;99.90;;;;;;6185380;23;20048;-69
2023/12/01 00:23:44;;;;;;;1.38;1.27;;;0.80;99.90;;;;;;6183333;23;20044;-70
2023/12/01 00:26:09;;;;;;;3.42;2.72;;;0.80;99.90;;;;;;6181377;23;20254;-70
2023/12/01 00:28:35;;;;;;;0.73;0.73;;;0.80;99.90;;;;;;6182730;23;20404;-70
2023/12/01 00:31:01;;;;;;;0.43;0.43;;;0.80;99.90;;;;;;6185724;23;20534;-70
2023/12/01 00:33:26;;;;;;;1.35;1.30;;;0.80;99.90;;;;;;6184931;23;20016;-70
2023/12/01 00:35:52;;;;;;;0.73;0.73;;;0.80;99.90;;;;;;6184368;23;20083;-70
2023/12/01 00:38:19;;;;;;;2.88;1.75;;;0.80;99.90;;;;;;6183930;23;20054;-70
2023/12/01 00:41:03;;;;;;;0.57;0.57;;;0.80;99.90;;;;;;6212468;23;20023;-70
2023/12/01 00:43:29;;;;;;;10.20;1.23;;;0.80;99.90;;;;;;6184533;23;20012;-70
2023/12/01 00:46:13;;;;;;;0.30;0.30;;;0.80;99.90;;;;;;6212336;23;20011;-70
2023/12/01 00:48:38;;;;;;;0.88;0.85;;;0.80;99.90;;;;;;6185591;23;20004;-70
2023/12/01 00:51:04;;;;;;;0.32;0.32;;;0.70;99.90;;;;;;6186443;23;20039;-70
2023/12/01 00:53:30;;;;;;;0.10;0.10;;;0.80;99.90;;;;;;6184900;23;20375;-70
2023/12/01 00:55:55;;;;;;;0.47;0.47;;;0.80;99.90;;;;;;6185715;23;20019;-70
2023/12/01 00:58:21;;;;;;;2.00;1.65;;;0.80;99.90;;;;;;6183188;23;20094;-70
2023/12/01 01:00:47;;;;;;;0.40;0.40;;;0.80;99.90;;;;;;6183553;23;20017;-69
2023/12/01 01:03:12;;;;;;;1.35;0.40;;;0.80;99.90;;;;;;6183832;23;20043;-70
2023/12/01 01:05:38;;;;;;;4.47;1.70;;;0.80;99.90;;;;;;6185353;23;20032;-69
2023/12/01 01:08:03;;;;;;;2.08;0.85;;;0.80;99.90;;;;;;6185693;23;20372;-70
2023/12/01 01:10:29;;;;;;;0.75;0.68;;;0.80;99.90;;;;;;6185744;23;20074;-69
2023/12/01 01:12:54;;;;;;;2.15;0.85;;;0.70;99.90;;;;;;6160420;23;20016;-70
2023/12/01 01:15:38;;;;;;;0.40;0.40;;;0.70;99.90;;;;;;6212210;23;20031;-70
2023/12/01 01:18:04;;;;;;;2.88;2.65;;;0.70;99.90;;;;;;6183767;23;20442;-70
2023/12/01 01:20:30;;;;;;;3.67;1.08;;;0.80;99.90;;;;;;6182444;23;20027;-71
2023/12/01 01:22:55;;;;;;;2.40;1.33;;;0.70;99.90;;;;;;6185328;23;20163;-71
2023/12/01 01:25:21;;;;;;;1.45;1.30;;;0.70;99.90;;;;;;6184757;23;20005;-70
2023/12/01 01:27:46;;;;;;;0.95;0.70;;;0.70;99.90;;;;;;6184075;23;20449;-70
2023/12/01 01:30:12;;;;;;;2.08;0.70;;;0.70;99.90;;;;;;6185514;23;20009;-70
2023/12/01 01:32:38;;;;;;;9.32;1.65;;;0.70;99.90;;;;;;6184512;23;20020;-70
2023/12/01 01:35:04;;;;;;;1.15;0.88;;;0.70;99.90;;;;;;6184498;23;20715;-70
2023/12/01 01:37:29;;;;;;;3.58;2.28;;;0.60;99.90;;;;;;6157157;23;20031;-70
2023/12/01 01:39:55;;;;;;;0.73;0.73;;;0.60;99.90;;;;;;6183353;23;20532;-70
2023/12/01 01:42:20;;;;;;;6.47;0.75;;;0.60;99.90;;;;;;6184400;23;20017;-70
2023/12/01 01:44:46;;;;;;;0.50;0.50;;;0.70;99.90;;;;;;6185156;23;20015;-70
2023/12/01 01:47:12;;;;;;;2.38;2.05;;;0.60;99.90;;;;;;6184890;23;20017;-69
2023/12/01 01:49:38;;;;;;;1.80;1.33;;;0.60;99.90;;;;;;6185567;23;20020;-70
2023/12/01 01:52:04;;;;;;;0.95;0.75;;;0.60;99.90;;;;;;6184329;23;20090;-70
2023/12/01 01:54:30;;;;;;;4.13;1.55;;;0.60;99.90;;;;;;6183633;23;20021;-70
2023/12/01 01:56:57;;;;;;;1.17;0.57;;;0.60;99.90;;;;;;6185611;23;20055;-69
2023/12/01 01:59:23;;;;;;;5.82;2.38;;;0.60;99.90;;;;;;6184911;23;20008;-70
2023/12/01 02:01:49;;;;;;;0.13;0.13;;;0.60;99.90;;;;;;6185363;23;20012;-69
2023/12/01 02:04:18;;;;;;;0.55;0.50;;;0.60;99.90;;;;;;6183678;23;20083;-70
2023/12/01 02:06:47;;;;;;;0.85;0.85;;;0.60;99.90;;;;;;6185520;23;20123;-69
2023/12/01 02:09:13;;;;;;;3.55;1.50;;;0.50;99.90;;;;;;6184734;23;20051;-70
2023/12/01 02:11:40;;;;;;;2.30;0.40;;;0.50;99.90;;;;;;6185499;23;20008;-69
2023/12/01 02:14:06;;;;;;;1.90;1.35;;;0.50;99.90;;;;;;6180653;23;20023;-70
2023/12/01 02:16:31;;;;;;;7.03;0.55;;;0.50;99.90;;;;;;6184338;23;20507;-69
2023/12/01 02:18:57;;;;;;;1.38;0.43;;;0.40;99.90;;;;;;6183590;23;20091;-69
2023/12/01 02:21:27;;;;;;;3.10;2.08;;;0.50;99.90;;;;;;6159364;23;20013;-71
2023/12/01 02:23:53;;;;;;;0.22;0.22;;;0.40;99.90;;;;;;6180178;23;20318;-70
2023/12/01 02:26:19;;;;;;;1.05;0.93;;;0.40;99.90;;;;;;6158906;23;20456;-70
2023/12/01 02:28:46;;;;;;;3.58;1.23;;;0.40;99.90;;;;;;6183082;23;20023;-71
2023/12/01 02:31:11;;;;;;;3.50;1.40;;;0.30;99.90;;;;;;6186846;23;20017;-70
2023/12/01 02:33:37;;;;;;;4.95;0.77;;;0.30;99.90;;;;;;6185637;23;20045;-70
2023/12/01 02:36:11;;;;;;;1.05;0.88;;;0.30;99.90;;;;;;6185621;23;20444;-69
2023/12/01 02:38:36;;;;;;;3.05;1.30;;;0.30;99.90;;;;;;6184470;23;20023;-70
2023/12/01 02:41:02;;;;;;;3.50;1.60;;;0.20;99.90;;;;;;6186418;23;20416;-70
2023/12/01 02:43:28;;;;;;;3.40;0.77;;;0.20;99.90;;;;;;6184627;23;20019;-70
2023/12/01 02:45:54;;;;;;;6.03;0.73;;;0.20;99.90;;;;;;6185579;23;20009;-69
2023/12/01 02:48:20;;;;;;;1.13;1.08;;;0.20;99.90;;;;;;6185875;23;20015;-69
2023/12/01 02:50:45;;;;;;;0.68;0.60;;;0.10;99.90;;;;;;6185232;23;20013;-69
2023/12/01 02:53:11;;;;;;;1.20;0.68;;;0.20;99.90;;;;;;6185178;23;20023;-70
2023/12/01 02:55:37;;;;;;;0.70;0.70;;;0.10;99.90;;;;;;6185224;23;20076;-69
2023/12/01 02:58:02;;;;;;;1.40;1.30;;;0.10;99.90;;;;;;6185761;23;20013;-69
2023/12/01 03:00:29;;;;;;;0.22;0.22;;;0.00;99.90;;;;;;6185000;23;20024;-69
2023/12/01 03:02:55;;;;;;;3.95;1.23;;;0.00;99.90;;;;;;6186134;23;20009;-70
2023/12/01 03:05:21;;;;;;;2.35;0.50;;;0.10;99.90;;;;;;6184525;23;20008;-69
2023/12/01 03:07:48;;;;;;;1.45;1.08;;;0.10;99.90;;;;;;6185857;23;20036;-69
2023/12/01 03:10:14;;;;;;;0.75;0.75;;;0.10;99.90;;;;;;6182681;23;20016;-69
2023/12/01 03:12:42;;;;;;;0.73;0.73;;;0.00;99.90;;;;;;6186046;23;20066;-69
2023/12/01 03:15:10;;;;;;;0.50;0.50;;;0.00;99.90;;;;;;6159079;23;20027;-69
2023/12/01 03:17:40;;;;;;;2.92;1.05;;;0.00;99.90;;;;;;6185898;23;20119;-69
2023/12/01 03:20:09;;;;;;;3.45;1.83;;;0.00;99.90;;;;;;6183980;23;20023;-69
2023/12/01 03:22:35;;;;;;;3.55;1.10;;;0.00;99.90;;;;;;6185702;23;20020;-70
2023/12/01 03:25:02;;;;;;;1.77;1.27;;;0.00;99.90;;;;;;6209369;23;20008;-71
2023/12/01 03:27:27;;;;;;;1.77;0.98;;;-0.10;99.90;;;;;;6185785;23;20023;-70
2023/12/01 03:29:53;;;;;;;1.17;1.08;;;-0.10;99.90;;;;;;6183380;23;20092;-70
2023/12/01 03:32:19;;;;;;;0.73;0.70;;;-0.10;99.90;;;;;;6185719;23;20335;-70
2023/12/01 03:34:44;;;;;;;0.98;0.95;;;-0.10;99.90;;;;;;6182953;23;20054;-69
2023/12/01 03:37:10;;;;;;;1.67;0.88;;;-0.10;99.90;;;;;;6185718;23;20043;-69
2023/12/01 03:39:36;;;;;;;3.50;1.02;;;-0.20;99.90;;;;;;6183246;23;20098;-69
2023/12/01 03:42:02;;;;;;;1.60;0.85;;;-0.20;99.90;;;;;;6185365;23;20103;-70
2023/12/01 03:44:28;;;;;;;1.25;1.25;;;-0.20;99.90;;;;;;6183325;23;20044;-69
2023/12/01 03:46:54;;;;;;;2.50;2.05;;;-0.20;99.90;;;;;;6212643;23;20013;-69
2023/12/01 03:49:19;;;;;;;4.30;1.35;;;-0.20;99.90;;;;;;6184576;23;20013;-69
2023/12/01 03:51:45;;;;;;;1.55;0.98;;;-0.20;99.90;;;;;;6161232;23;20044;-69
2023/12/01 03:54:11;;;;;;;1.88;1.27;;;-0.20;99.90;;;;;;6183297;23;20074;-69
2023/12/01 03:56:36;;;;;;;5.38;1.17;;;-0.30;99.90;;;;;;6186129;23;20016;-68
2023/12/01 03:59:03;;;;;;;2.88;1.63;;;-0.30;99.90;;;;;;6183709;23;20008;-70
2023/12/01 04:01:29;;;;;;;3.03;1.10;;;-0.40;99.90;;;;;;6160497;23;20016;-70
2023/12/01 04:03:54;;;;;;;1.45;1.38;;;-0.40;99.90;;;;;;6210705;23;20043;-69
2023/12/01 04:06:20;;;;;;;3.40;1.52;;;-0.40;99.90;;;;;;6184346;23;20016;-71
2023/12/01 04:08:45;;;;;;;2.10;1.92;;;-0.40;99.90;;;;;;6212707;23;20447;-69
2023/12/01 04:11:11;;;;;;;1.50;1.35;;;-0.40;99.90;;;;;;6211200;23;20317;-69
2023/12/01 04:13:37;;;;;;;7.88;1.55;;;-0.40;99.90;;;;;;6212018;23;20487;-71
2023/12/01 04:16:03;;;;;;;1.38;1.20;;;-0.50;99.90;;;;;;6184681;23;20337;-72
2023/12/01 04:18:30;;;;;;;6.38;1.77;;;-0.50;99.90;;;;;;6161170;23;20291;-71
2023/12/01 04:20:58;;;;;;;2.03;1.83;;;-0.60;99.90;;;;;;6185233;23;20020;-71
2023/12/01 04:23:24;;;;;;;2.28;1.40;;;-0.60;99.90;;;;;;6185498;23;20027;-70
2023/12/01 04:25:50;;;;;;;3.35;0.93;;;-0.60;99.90;;;;;;6183936;23;20016;-69
2023/12/01 04:28:16;;;;;;;0.80;0.80;;;-0.70;99.90;;;;;;6185387;23;20020;-71
2023/12/01 04:30:45;;;;;;;0.73;0.73;;;-0.70;99.90;;;;;;6212688;23;20127;-70
2023/12/01 04:33:13;;;;;;;1.50;1.40;;;-0.70;99.90;;;;;;6184263;23;20446;-71
2023/12/01 04:35:39;;;;;;;1.90;1.80;;;-0.70;99.90;;;;;;6184701;23;20324;-70
2023/12/01 04:38:05;;;;;;;1.00;0.95;;;-0.80;99.90;;;;;;6184810;23;20059;-70
2023/12/01 04:40:32;;;;;;;0.65;0.63;;;-0.80;99.90;;;;;;6212288;23;20016;-69
2023/12/01 04:42:59;;;;;;;0.95;0.95;;;-0.80;99.90;;;;;;6185133;23;20119;-70
2023/12/01 04:45:26;;;;;;;0.93;0.85;;;-0.80;99.90;;;;;;6212112;23;20084;-69
2023/12/01 04:47:54;;;;;;;1.85;1.10;;;-0.80;99.90;;;;;;6212166;23;20361;-69
2023/12/01 04:50:21;;;;;;;1.02;0.40;;;-0.80;99.90;;;;;;6183979;23;20023;-70
2023/12/01 04:52:49;;;;;;;5.13;1.25;;;-0.80;99.90;;;;;;6184574;23;20012;-69
2023/12/01 04:55:17;;;;;;;1.08;0.43;;;-0.80;99.90;;;;;;6185052;23;20070;-69
2023/12/01 04:57:44;;;;;;;1.65;1.17;;;-0.80;99.90;;;;;;6184537;23;20076;-69
2023/12/01 05:00:25;;;;;;;1.10;1.05;;;-0.80;99.90;;;;;;6210979;23;20016;-69
2023/12/01 05:02:52;;;;;;;1.75;1.27;;;-0.90;99.90;;;;;;6184459;23;20017;-70
2023/12/01 05:05:18;;;;;;;3.30;2.25;;;-0.90;99.90;;;;;;6185173;23;20434;-69
2023/12/01 05:07:45;;;;;;;1.27;0.73;;;-0.90;99.90;;;;;;6184774;23;20016;-70
2023/12/01 05:10:14;;;;;;;2.30;1.35;;;-1.00;99.90;;;;;;6184524;23;20071;-70
2023/12/01 05:12:45;;;;;;;3.60;2.63;;;-1.00;99.90;;;;;;6185001;23;20016;-70
2023/12/01 05:15:16;;;;;;;1.40;1.08;;;-1.10;99.90;;;;;;6210410;23;20098;-70
2023/12/01 05:17:44;;;;;;;1.58;1.48;;;-1.10;99.90;;;;;;6159613;23;20416;-69
2023/12/01 05:20:15;;;;;;;1.23;1.17;;;-1.10;99.90;;;;;;6185367;23;20016;-69
2023/12/01 05:22:51;;;;;;;5.00;1.13;;;-1.20;99.90;;;;;;6184420;23;20102;-69
2023/12/01 05:25:18;;;;;;;0.75;0.50;;;-1.20;99.90;;;;;;6183898;23;20020;-68
2023/12/01 05:27:49;;;;;;;2.80;1.45;;;-1.30;99.90;;;;;;6184543;23;20043;-70
2023/12/01 05:30:16;;;;;;;4.90;1.10;;;-1.30;99.90;;;;;;6184619;23;20018;-70
2023/12/01 05:32:44;;;;;;;2.08;1.35;;;-1.40;99.90;;;;;;6211377;23;20016;-69
2023/12/01 05:35:10;;;;;;;0.52;0.52;;;-1.50;99.90;;;;;;6211471;23;20104;-69
2023/12/01 05:37:50;;;;;;;0.65;0.65;;;-1.60;99.90;;;;;;6184141;23;20012;-70
2023/12/01 05:40:24;;;;;;;1.83;0.60;;;-1.70;99.90;;;;;;6184903;23;20015;-69
2023/12/01 05:42:54;;;;;;;0.75;0.75;;;-1.70;99.90;;;;;;6183708;23;20017;-69
2023/12/01 05:45:26;;;;;;;0.85;0.85;;;-1.80;99.90;;;;;;6183920;23;20029;-69
2023/12/01 05:47:53;;;;;;;0.98;0.95;;;-1.80;99.90;;;;;;6184568;23;20019;-69
2023/12/01 05:50:27;;;;;;;1.55;0.55;;;-1.80;99.90;;;;;;6184180;23;20019;-68
2023/12/01 05:52:56;;;;;;;0.93;0.52;;;-1.90;99.90;;;;;;6210442;23;20012;-68
2023/12/01 05:55:29;;;;;;;0.20;0.20;;;-2.00;99.90;;;;;;6184292;23;20051;-68
2023/12/01 05:57:59;;;;;;;1.92;1.00;;;-2.00;99.90;;;;;;6183277;23;20031;-67
2023/12/01 06:00:29;;;;;;;3.03;1.02;;;-2.10;99.90;;;;;;6160008;23;20051;-68
2023/12/01 06:02:57;;;;;;;3.25;0.90;;;-2.10;99.90;;;;;;6155622;23;20022;-68
2023/12/01 06:05:23;;;;;;;0.32;0.32;;;-2.20;99.90;;;;;;6186135;23;20017;-68
2023/12/01 06:07:52;;;;;;;0.93;0.88;;;-2.20;99.90;;;;;;6213072;23;20431;-68
2023/12/01 06:10:18;;;;;;;2.60;0.93;;;-2.20;99.90;;;;;;6187067;23;20020;-69
2023/12/01 06:12:44;;;;;;;0.43;0.43;;;-2.30;99.90;;;;;;6185649;23;20422;-68
2023/12/01 06:15:13;;;;;;;1.33;0.20;;;-2.30;99.90;;;;;;6184902;23;20083;-69
2023/12/01 06:17:43;;;;;;;1.25;0.95;;;-2.30;99.90;;;;;;6213238;23;20023;-69
2023/12/01 06:20:19;;;;;;;0.13;0.13;;;-2.40;99.90;;;;;;6186313;23;20340;-70
2023/12/01 06:22:50;;;;;;;0.63;0.63;;;-2.40;99.90;;;;;;6212321;23;20092;-70
2023/12/01 06:25:16;;;;;;;0.45;0.45;;;-2.40;99.90;;;;;;6184707;23;20336;-70
2023/12/01 06:27:42;;;;;;;0.65;0.63;;;-2.50;99.90;;;;;;6186132;23;20013;-70
2023/12/01 06:30:12;;;;;;;0.15;0.15;;;-2.40;99.90;;;;;;6214478;23;20016;-71
2023/12/01 06:32:45;;;;;;;6.22;1.95;;;-2.50;99.90;;;;;;6185963;23;20054;-71
2023/12/01 06:35:12;;;;;;;0.70;0.40;;;-2.50;99.90;;;;;;6185352;23;20023;-71
2023/12/01 06:37:39;;;;;;;0.73;0.73;;;-2.60;99.90;;;;;;6186276;23;20025;-71
2023/12/01 06:40:12;;;;;;;0.35;0.35;;;-2.60;99.90;;;;;;6212003;23;20016;-71
2023/12/01 06:42:41;;;;;;;;;;;-2.60;99.90;;;;;;6211535;23;20016;-71
2023/12/01 06:45:11;;;;;;;0.28;0.28;;;-2.60;99.90;;;;;;6185447;23;19919;-71
2023/12/01 06:47:39;;;;;;;0.52;0.52;;;-2.70;99.90;;;;;;6186125;23;20340;-71
2023/12/01 06:50:05;;;;;;;1.58;1.08;;;-2.70;99.90;;;;;;6186991;23;20433;-71
2023/12/01 06:52:33;;;;;;;0.75;0.75;;;-2.70;99.90;;;;;;6212113;23;20390;-71
2023/12/01 06:54:59;;;;;;;1.35;1.25;;;-2.70;99.90;;;;;;6211001;23;20052;-71
2023/12/01 06:57:24;;;;;;;2.45;0.93;;;-2.80;99.90;;;;;;6184911;23;20024;-71
2023/12/01 06:59:52;;;;;;;1.48;0.82;;;-2.80;99.90;;;;;;6185728;23;20039;-72
2023/12/01 07:02:18;;;;;;;0.47;0.47;;;-2.80;99.90;;;;;;6180870;23;20027;-72
2023/12/01 07:04:44;;;;;;;0.50;0.50;;;-2.80;99.90;;;;;;6211215;23;20013;-72
2023/12/01 07:07:12;;;;;;;0.40;0.40;;;-2.90;99.90;;;;;;6159726;23;20519;-72
2023/12/01 07:09:38;;;;;;;0.10;0.10;;;-2.90;99.90;;;;;;6185210;23;20008;-72
2023/12/01 07:12:05;;;;;;;0.60;0.50;;;-2.90;99.90;;;;;;6183707;23;20131;-72
2023/12/01 07:14:31;;;;;;;0.82;0.80;;;-2.90;99.90;;;;;;6182757;23;20016;-72
2023/12/01 07:16:56;;;;;;;0.65;0.65;;;-2.90;99.90;;;;;;6209861;23;20036;-72
2023/12/01 07:19:22;;;;;;;2.53;0.73;;;-3.00;99.90;;;;;;6186339;23;20339;-72
2023/12/01 07:21:50;;;;;;;1.25;0.25;;;-2.90;99.90;;;;;;6160264;23;20020;-72
2023/12/01 07:24:18;;;;;;;2.15;1.17;;;-3.00;99.90;;;;;;6211397;23;20083;-72
2023/12/01 07:26:44;;;;;;;0.10;0.10;;;-3.00;99.90;;;;;;6212803;23;20009;-72
2023/12/01 07:29:09;;;;;;;0.10;0.10;;;-3.00;99.90;;;;;;6185047;23;20016;-72
2023/12/01 07:31:35;;;;;;;0.82;0.82;;;-2.90;99.90;;;;;;6185505;23;20051;-72
2023/12/01 07:34:01;;;;;;;0.73;0.50;;;-3.00;99.90;;;;;;6183935;23;20028;-72
2023/12/01 07:36:28;;;;;;;4.40;1.00;;;-3.00;99.90;;;;;;6184830;23;20020;-72
2023/12/01 07:38:53;;;;;;;3.05;0.63;;;-3.00;99.90;;;;;;6185254;23;20444;-71
2023/12/01 07:41:19;;;;;;;0.20;0.20;;;-3.00;99.90;;;;;;6186151;23;20023;-73
2023/12/01 07:43:44;;;;;;;0.90;0.47;;;-3.00;99.90;;;;;;6185189;23;20017;-74
2023/12/01 07:46:10;;;;;;;0.32;0.32;;;-3.10;99.90;;;;;;6213239;23;20083;-74
2023/12/01 07:48:36;;;;;;;0.15;0.15;;;-3.00;99.90;;;;;;6185262;23;20012;-74
2023/12/01 07:51:03;;;;;;;0.75;0.57;;;-3.00;99.90;;;;;;6186690;23;20411;-74
2023/12/01 07:53:28;;;;;;;1.13;0.82;;;-3.00;99.90;;;;;;6183396;23;20017;-74
2023/12/01 07:55:54;;;;;;;0.15;0.15;;;-3.00;99.90;;;;;;6185495;23;20005;-74
2023/12/01 07:58:20;;;;;;;0.43;0.43;;;-3.00;99.90;;;;;;6185180;23;20119;-74
2023/12/01 08:00:46;;;;;;;0.10;0.10;;;-3.00;99.90;;;;;;6186648;23;20013;-73
2023/12/01 08:03:12;;;;;;;1.20;1.13;;;-3.00;99.90;;;;;;6208275;23;20095;-74
2023/12/01 08:05:39;;;;;;;0.43;0.32;;;-3.00;99.90;;;;;;6181522;23;20079;-73
2023/12/01 08:08:05;;;;;;;1.23;1.17;;;-2.90;99.90;;;;;;6210272;23;20253;-73
2023/12/01 08:10:31;;;;;;;0.10;0.10;;;-3.00;99.90;;;;;;6184566;23;20317;-73
2023/12/01 08:12:57;;;;;;;20.58;1.35;;;-3.00;99.90;;;;;;6183852;23;20349;-73
2023/12/01 08:15:23;;;;;;;0.22;0.22;;;-3.00;99.90;;;;;;6184118;23;20022;-73
2023/12/01 08:17:49;;;;;;;0.10;0.10;;;-2.90;99.90;;;;;;6183389;23;20020;-73
2023/12/01 08:20:16;;;;;;;2.22;1.95;;;-2.90;99.90;;;;;;6184886;23;20020;-73
2023/12/01 08:22:43;;;;;;;0.80;0.63;;;-2.80;99.90;;;;;;6210848;23;20013;-73
2023/12/01 08:25:09;;;;;;;7.95;2.38;;;-2.80;99.90;;;;;;6184840;23;20388;-73
2023/12/01 08:27:35;;;;;;;2.05;1.27;;;-2.80;99.90;;;;;;6183401;23;20019;-73
2023/12/01 08:30:02;;;;;;;0.55;0.55;;;-2.80;99.90;;;;;;6185091;23;20036;-73
2023/12/01 08:32:28;;;;;;;0.20;0.20;;;-2.80;99.90;;;;;;6183722;23;20393;-73
2023/12/01 08:34:54;;;;;;;1.20;0.75;;;-2.80;99.90;;;;;;6183850;23;20031;-73
2023/12/01 08:37:20;;;;;;;5.22;2.55;;;-2.80;99.90;;;;;;6159434;23;20016;-73
2023/12/01 08:39:46;;;;;;;0.40;0.40;;;-2.80;99.90;;;;;;6184325;23;20050;-73
2023/12/01 08:42:11;;;;;;;1.92;1.80;;;-2.80;99.90;;;;;;6183573;23;20151;-73
2023/12/01 08:44:37;;;;;;;0.40;0.40;;;-2.70;99.90;;;;;;6183332;23;20008;-73
2023/12/01 08:47:03;;;;;;;0.15;0.15;;;-2.70;99.90;;;;;;6184140;23;20095;-73
2023/12/01 08:49:29;;;;;;;0.55;0.55;;;-2.70;99.90;;;;;;6177734;23;20023;-73
2023/12/01 08:51:55;;;;;;;0.35;0.35;;;-2.60;99.90;;;;;;6184722;23;20091;-73
2023/12/01 08:54:22;;;;;;;0.98;0.75;;;-2.60;99.90;;;;;;6183274;23;20009;-73
2023/12/01 08:56:48;;;;;;;0.95;0.80;;;-2.60;99.90;;;;;;6181920;23;20016;-73
2023/12/01 08:59:13;;;;;;;3.60;2.85;;;-2.50;99.90;;;;;;6211233;23;20456;-73
2023/12/01 09:01:40;;;;;;;4.47;0.77;;;-2.50;99.90;;;;;;6184062;23;20013;-73
2023/12/01 09:04:06;;;;;;;1.45;0.95;;;-2.40;99.90;;;;;;6182799;23;20452;-73
2023/12/01 09:06:32;;;;;;;8.02;2.72;;;-2.40;99.90;;;;;;6184605;23;20063;-73
2023/12/01 09:08:58;;;;;;;3.00;2.60;;;-2.40;99.90;;;;;;6184873;23;20012;-73
2023/12/01 09:11:24;;;;;;;1.52;0.98;;;-2.40;99.90;;;;;;6184627;23;20456;-73
2023/12/01 09:13:49;;;;;;;1.17;1.05;;;-2.30;99.90;;;;;;6183830;23;20123;-73
2023/12/01 09:16:15;;;;;;;0.88;0.35;;;-2.30;99.90;;;;;;6184494;23;20066;-73
2023/12/01 09:18:41;;;;;;;8.98;1.70;;;-2.30;99.90;;;;;;6180753;23;20075;-73
2023/12/01 09:21:07;;;;;;;4.38;0.90;;;-2.20;99.90;;;;;;6184965;23;20045;-73
2023/12/01 09:23:33;;;;;;;1.52;1.00;;;-2.20;99.90;;;;;;6184050;23;20446;-73
2023/12/01 09:25:58;;;;;;;1.85;0.43;;;-2.20;99.90;;;;;;6211126;23;20017;-73
2023/12/01 09:28:24;;;;;;;1.80;1.70;;;-2.20;99.90;;;;;;6183277;23;20016;-73
2023/12/01 09:30:49;;;;;;;5.25;1.23;;;-2.20;99.90;;;;;;6184680;23;20016;-73
2023/12/01 09:33:16;;;;;;;4.13;2.15;;;-2.10;99.90;;;;;;6210087;23;20020;-73
2023/12/01 09:35:42;;;;;;;0.47;0.47;;;-2.10;99.90;;;;;;6159252;23;20055;-73
2023/12/01 09:38:07;;;;;;;6.43;1.67;;;-2.00;99.90;;;;;;6158285;23;20400;-73
2023/12/01 09:40:39;;;;;;;1.70;0.90;;;-2.00;99.90;;;;;;6184703;23;20017;-72
2023/12/01 09:43:07;;;;;;;1.05;0.93;;;-2.00;99.90;;;;;;6156022;23;20101;-72
2023/12/01 09:45:33;;;;;;;4.22;2.10;;;-2.00;99.90;;;;;;6210672;23;20424;-72
2023/12/01 09:48:03;;;;;;;1.80;1.67;;;-1.90;99.90;;;;;;6209911;23;20008;-72
2023/12/01 09:50:29;;;;;;;1.17;1.17;;;-1.90;99.90;;;;;;6184581;23;20356;-73
2023/12/01 09:52:54;;;;;;;1.67;0.85;;;-1.90;99.90;;;;;;6183422;23;20026;-72
2023/12/01 09:55:20;;;;;;;1.08;0.63;;;-1.80;99.90;;;;;;6184454;23;20531;-73
2023/12/01 09:57:46;;;;;;;0.20;0.20;;;-1.80;99.90;;;;;;6184312;23;20020;-73
2023/12/01 10:00:12;;;;;;;2.22;1.35;;;-1.80;99.90;;;;;;6184328;23;20028;-73
2023/12/01 10:02:41;;;;;;;1.73;0.93;;;-1.80;99.90;;;;;;6184697;23;20543;-72
2023/12/01 10:05:07;;;;;;;2.67;1.55;;;-1.70;99.90;;;;;;6182266;23;20344;-72
2023/12/01 10:07:36;;;;;;;2.15;1.23;;;-1.70;99.90;;;;;;6185075;23;20020;-73
2023/12/01 10:10:19;;;;;;;5.93;1.55;;;-1.60;99.90;;;;;;6211706;23;20462;-72
2023/12/01 10:13:11;;;;;;;1.17;0.88;;;-1.60;99.90;;;;;;6184507;23;20020;-72
2023/12/01 10:15:38;;;;;;;1.07;1.07;;;-1.50;99.90;;;;;;6175636;23;20012;-73
2023/12/01 10:18:16;;;;;;;12.18;2.55;;;-1.50;99.90;;;;;;6184070;23;20027;-72
2023/12/01 10:20:54;;;;;;;2.92;0.63;;;-1.50;99.90;;;;;;6211776;23;20082;-73
2023/12/01 10:23:20;;;;;;;1.08;0.68;;;-1.40;99.90;;;;;;6183554;23;20017;-73
2023/12/01 10:25:49;;;;;;;1.80;1.70;;;-1.30;99.90;;;;;;6183933;23;20020;-73
2023/12/01 10:28:16;;;;;;;0.63;0.63;;;-1.30;99.90;;;;;;6184425;23;20009;-73
2023/12/01 10:30:55;;;;;;;1.08;0.88;;;-1.30;99.90;;;;;;6184961;23;20051;-73
2023/12/01 10:33:23;;;;;;;1.80;1.65;;;-1.30;99.90;;;;;;6183956;23;20401;-73
2023/12/01 10:36:02;;;;;;;0.77;0.77;;;-1.20;99.90;;;;;;6183350;23;20059;-73
2023/12/01 10:38:29;;;;;;;0.88;0.88;;;-1.20;99.90;;;;;;6181597;23;20399;-73
2023/12/01 10:40:56;;;;;;;0.28;0.28;;;-1.20;99.90;;;;;;6181480;23;20028;-73
2023/12/01 10:43:22;;;;;;;1.23;1.23;;;-1.10;99.90;;;;;;6184291;23;20024;-73
2023/12/01 10:45:50;;;;;;;0.88;0.88;;;-1.10;99.90;;;;;;6183815;23;20445;-73
2023/12/01 10:48:20;;;;;;;0.40;0.40;;;-1.10;99.90;;;;;;6183819;23;20371;-73
2023/12/01 10:50:47;;;;;;;1.17;0.52;;;-1.10;99.90;;;;;;6186021;23;20013;-73
2023/12/01 10:53:15;;;;;;;0.22;0.22;;;-1.10;99.90;;;;;;6186073;23;20017;-72
2023/12/01 10:55:50;;;;;;;0.60;0.60;;;-1.00;99.90;;;;;;6184483;23;20489;-73
2023/12/01 10:58:24;;;;;;;1.33;0.43;;;-1.00;99.90;;;;;;6185611;23;20012;-73
2023/12/01 11:00:50;;;;;;;1.65;1.10;;;-1.00;99.90;;;;;;6183378;23;20050;-73
2023/12/01 11:03:25;;;;;;;3.30;1.65;;;-1.00;99.90;;;;;;6185065;23;20482;-73
2023/12/01 11:05:57;;;;;;;7.13;0.93;;;-1.00;99.90;;;;;;6185123;23;20098;-73
2023/12/01 11:08:40;;;;;;;1.38;0.55;;;-1.00;99.90;;;;;;6212353;23;20008;-73
2023/12/01 11:11:12;;;;;;;0.85;0.85;;;-0.90;99.90;;;;;;6185460;23;20017;-73
2023/12/01 11:14:05;;;;;;;6.57;1.20;;;-0.90;99.90;;;;;;6185741;23;20013;-73
2023/12/01 11:16:31;;;;;;;2.13;1.23;;;-0.90;99.90;;;;;;6212888;23;20016;-73
2023/12/01 11:18:58;;;;;;;2.25;1.52;;;-0.90;99.90;;;;;;6212189;23;20012;-73
2023/12/01 11:21:24;;;;;;;0.47;0.47;;;-0.80;99.90;;;;;;6185519;23;20024;-73
2023/12/01 11:23:50;;;;;;;2.15;1.27;;;-0.90;99.90;;;;;;6184940;23;20095;-73
2023/12/01 11:26:16;;;;;;;0.85;0.57;;;-0.80;99.90;;;;;;6184951;23;20012;-72
2023/12/01 11:28:54;;;;;;;2.13;1.50;;;-0.80;99.90;;;;;;6185300;23;20083;-73
2023/12/01 11:31:37;;;;;;;2.13;0.63;;;-0.80;99.90;;;;;;6183599;23;20008;-73
2023/12/01 11:34:04;;;;;;;1.33;0.98;;;-0.80;99.90;;;;;;6184763;23;20016;-73
2023/12/01 11:36:36;;;;;;;0.20;0.20;;;-0.80;99.90;;;;;;6184944;23;20048;-73
2023/12/01 11:39:11;;;;;;;1.08;1.08;;;-0.80;99.90;;;;;;6160362;23;20491;-73
2023/12/01 11:41:46;;;;;;;6.90;0.65;;;-0.70;99.90;;;;;;6185583;23;20044;-73
2023/12/01 11:44:27;;;;;;;2.13;1.55;;;-0.70;99.90;;;;;;6184461;23;20135;-73
2023/12/01 11:46:57;;;;;;;1.13;1.02;;;-0.70;99.90;;;;;;6185272;23;20489;-73
2023/12/01 11:49:28;;;;;;;0.40;0.40;;;-0.70;99.90;;;;;;6212248;23;20009;-73
2023/12/01 11:51:54;;;;;;;3.63;1.23;;;-0.60;99.90;;;;;;6185483;23;20344;-73
2023/12/01 11:54:20;;;;;;;0.60;0.52;;;-0.60;99.90;;;;;;6184820;23;20025;-73
2023/12/01 11:56:50;;;;;;;1.33;1.23;;;-0.60;99.90;;;;;;6184580;23;20403;-73
2023/12/01 11:59:16;;;;;;;0.57;0.57;;;-0.60;99.90;;;;;;6184494;23;20013;-73
2023/12/01 12:01:42;;;;;;;2.10;1.08;;;-0.60;99.90;;;;;;6184799;23;20039;-73
2023/12/01 12:04:11;;;;;;;0.90;0.90;;;-0.50;99.90;;;;;;6159256;23;20015;-73
2023/12/01 12:06:36;;;;;;;5.93;1.85;;;-0.60;99.90;;;;;;6185065;23;20012;-73
2023/12/01 12:09:06;;;;;;;0.50;0.50;;;-0.50;99.90;;;;;;6185488;23;20187;-73
2023/12/01 12:11:34;;;;;;;2.17;0.77;;;-0.50;99.90;;;;;;6184867;23;20092;-73
2023/12/01 12:14:01;;;;;;;2.05;0.70;;;-0.50;99.90;;;;;;6185840;23;20040;-73
2023/12/01 12:16:27;;;;;;;1.25;0.68;;;-0.50;99.90;;;;;;6211709;23;20023;-73
2023/12/01 12:18:56;;;;;;;0.28;0.28;;;-0.50;99.90;;;;;;6184479;23;20091;-73
2023/12/01 12:21:23;;;;;;;1.08;0.85;;;-0.50;99.90;;;;;;6184967;23;20016;-73
2023/12/01 12:23:49;;;;;;;0.63;0.52;;;-0.50;99.90;;;;;;6211052;23;20017;-73
2023/12/01 12:26:26;;;;;;;0.73;0.52;;;-0.50;99.90;;;;;;6184077;23;20008;-73
2023/12/01 12:29:00;;;;;;;1.27;1.02;;;-0.50;99.90;;;;;;6211232;23;20011;-73
2023/12/01 12:31:28;;;;;;;2.22;1.20;;;-0.40;99.90;;;;;;6183344;23;20348;-73
2023/12/01 12:33:56;;;;;;;1.70;0.75;;;-0.40;99.90;;;;;;6185130;23;20013;-73
2023/12/01 12:36:23;;;;;;;0.40;0.40;;;-0.40;99.90;;;;;;6184235;23;20020;-74
2023/12/01 12:38:50;;;;;;;1.48;1.38;;;-0.40;99.90;;;;;;6212884;23;20130;-74
2023/12/01 12:41:26;;;;;;;0.30;0.30;;;-0.40;99.90;;;;;;6183799;23;20024;-74
2023/12/01 12:43:59;;;;;;;2.22;1.17;;;-0.30;99.90;;;;;;6212760;23;20047;-74
2023/12/01 12:46:27;;;;;;;0.85;0.50;;;-0.30;99.90;;;;;;6160636;23;20013;-74
2023/12/01 12:49:02;;;;;;;0.55;0.55;;;-0.30;99.90;;;;;;6185285;23;20384;-74
2023/12/01 12:51:29;;;;;;;0.57;0.57;;;-0.30;99.90;;;;;;6185567;23;20052;-74
2023/12/01 12:53:56;;;;;;;0.03;0.03;;;-0.20;99.90;;;;;;6184938;23;20396;-74